sensor_id;sensor_type;location;lat;lon;timestamp;P1;durP1;ratioP1;P2;durP2;ratioP2
68475;SDS011;55464;48.266;14.188;2022-08-19T00:01:12;4.65;;;2.10;;
68475;SDS011;55464;48.266;14.188;2022-08-19T00:03:38;3.75;;;1.73;;
68475;SDS011;55464;48.266;14.188;2022-08-19T00:06:04;6.38;;;1.85;;
68475;SDS011;55464;48.266;14.188;2022-08-19T00:08:30;4.20;;;1.67;;
68475;SDS011;55464;48.266;14.188;2022-08-19T00:10:56;2.85;;;1.58;;
68475;SDS011;55464;48.266;14.188;2022-08-19T00:13:22;3.42;;;1.67;;
68475;SDS011;55464;48.266;14.188;2022-08-19T00:15:48;5.22;;;1.85;;
68475;SDS011;55464;48.266;14.188;2022-08-19T00:18:13;8.18;;;2.42;;
68475;SDS011;55464;48.266;14.188;2022-08-19T00:20:39;3.28;;;1.90;;
68475;SDS011;55464;48.266;14.188;2022-08-19T00:23:05;3.83;;;1.75;;
68475;SDS011;55464;48.266;14.188;2022-08-19T00:25:31;4.78;;;1.80;;
68475;SDS011;55464;48.266;14.188;2022-08-19T00:27:58;3.95;;;1.98;;
68475;SDS011;55464;48.266;14.188;2022-08-19T00:30:24;5.60;;;2.30;;
68475;SDS011;55464;48.266;14.188;2022-08-19T00:32:52;4.88;;;2.08;;
68475;SDS011;55464;48.266;14.188;2022-08-19T00:35:20;3.90;;;2.63;;
68475;SDS011;55464;48.266;14.188;2022-08-19T00:37:47;7.25;;;2.53;;
68475;SDS011;55464;48.266;14.188;2022-08-19T00:40:14;7.90;;;2.42;;
68475;SDS011;55464;48.266;14.188;2022-08-19T00:42:40;7.28;;;3.08;;
68475;SDS011;55464;48.266;14.188;2022-08-19T00:45:13;5.93;;;2.90;;
68475;SDS011;55464;48.266;14.188;2022-08-19T00:47:42;5.88;;;2.97;;
68475;SDS011;55464;48.266;14.188;2022-08-19T00:50:10;5.93;;;2.42;;
68475;SDS011;55464;48.266;14.188;2022-08-19T00:52:40;4.80;;;3.40;;
68475;SDS011;55464;48.266;14.188;2022-08-19T00:55:10;6.78;;;3.70;;
68475;SDS011;55464;48.266;14.188;2022-08-19T00:57:44;6.63;;;3.42;;
68475;SDS011;55464;48.266;14.188;2022-08-19T01:00:15;8.38;;;3.53;;
68475;SDS011;55464;48.266;14.188;2022-08-19T01:02:42;9.37;;;3.80;;
68475;SDS011;55464;48.266;14.188;2022-08-19T01:05:13;5.05;;;3.40;;
68475;SDS011;55464;48.266;14.188;2022-08-19T01:07:43;6.50;;;3.67;;
68475;SDS011;55464;48.266;14.188;2022-08-19T01:10:11;7.22;;;4.15;;
68475;SDS011;55464;48.266;14.188;2022-08-19T01:12:39;5.03;;;3.30;;
68475;SDS011;55464;48.266;14.188;2022-08-19T01:15:06;6.15;;;3.45;;
68475;SDS011;55464;48.266;14.188;2022-08-19T01:17:33;7.03;;;3.15;;
68475;SDS011;55464;48.266;14.188;2022-08-19T01:20:02;5.93;;;3.63;;
68475;SDS011;55464;48.266;14.188;2022-08-19T01:22:49;4.72;;;3.58;;
68475;SDS011;55464;48.266;14.188;2022-08-19T01:25:22;6.43;;;4.00;;
68475;SDS011;55464;48.266;14.188;2022-08-19T01:27:51;6.95;;;3.80;;
68475;SDS011;55464;48.266;14.188;2022-08-19T01:30:20;6.75;;;3.72;;
68475;SDS011;55464;48.266;14.188;2022-08-19T01:32:50;7.45;;;3.47;;
68475;SDS011;55464;48.266;14.188;2022-08-19T01:35:17;7.18;;;3.47;;
68475;SDS011;55464;48.266;14.188;2022-08-19T01:37:44;5.90;;;3.28;;
68475;SDS011;55464;48.266;14.188;2022-08-19T01:40:12;5.80;;;3.07;;
68475;SDS011;55464;48.266;14.188;2022-08-19T01:42:38;3.45;;;2.92;;
68475;SDS011;55464;48.266;14.188;2022-08-19T01:45:04;7.25;;;3.65;;
68475;SDS011;55464;48.266;14.188;2022-08-19T01:47:33;4.07;;;3.38;;
68475;SDS011;55464;48.266;14.188;2022-08-19T01:52:29;4.60;;;2.85;;
68475;SDS011;55464;48.266;14.188;2022-08-19T01:54:54;4.90;;;3.10;;
68475;SDS011;55464;48.266;14.188;2022-08-19T01:57:20;4.72;;;3.08;;
68475;SDS011;55464;48.266;14.188;2022-08-19T01:59:46;7.28;;;3.08;;
68475;SDS011;55464;48.266;14.188;2022-08-19T02:02:11;5.00;;;3.25;;
68475;SDS011;55464;48.266;14.188;2022-08-19T02:04:37;4.22;;;3.15;;
68475;SDS011;55464;48.266;14.188;2022-08-19T02:07:03;4.85;;;2.65;;
68475;SDS011;55464;48.266;14.188;2022-08-19T02:09:31;6.57;;;3.38;;
68475;SDS011;55464;48.266;14.188;2022-08-19T02:11:57;7.53;;;3.25;;
68475;SDS011;55464;48.266;14.188;2022-08-19T02:14:23;6.35;;;3.30;;
68475;SDS011;55464;48.266;14.188;2022-08-19T02:16:49;4.80;;;3.28;;
68475;SDS011;55464;48.266;14.188;2022-08-19T02:19:14;7.53;;;3.63;;
68475;SDS011;55464;48.266;14.188;2022-08-19T02:21:40;6.47;;;3.63;;
68475;SDS011;55464;48.266;14.188;2022-08-19T02:24:06;7.30;;;4.40;;
68475;SDS011;55464;48.266;14.188;2022-08-19T02:26:32;6.25;;;3.97;;
68475;SDS011;55464;48.266;14.188;2022-08-19T02:28:58;6.65;;;4.28;;
68475;SDS011;55464;48.266;14.188;2022-08-19T02:31:25;7.32;;;4.40;;
68475;SDS011;55464;48.266;14.188;2022-08-19T02:33:53;8.27;;;4.40;;
68475;SDS011;55464;48.266;14.188;2022-08-19T02:36:20;7.72;;;4.28;;
68475;SDS011;55464;48.266;14.188;2022-08-19T02:38:47;5.30;;;3.80;;
68475;SDS011;55464;48.266;14.188;2022-08-19T02:41:19;6.22;;;3.83;;
68475;SDS011;55464;48.266;14.188;2022-08-19T02:43:47;5.05;;;3.63;;
68475;SDS011;55464;48.266;14.188;2022-08-19T02:46:17;6.53;;;3.45;;
68475;SDS011;55464;48.266;14.188;2022-08-19T02:48:47;5.13;;;3.35;;
68475;SDS011;55464;48.266;14.188;2022-08-19T02:51:21;4.80;;;3.70;;
68475;SDS011;55464;48.266;14.188;2022-08-19T02:53:49;4.35;;;3.40;;
68475;SDS011;55464;48.266;14.188;2022-08-19T02:56:15;8.55;;;3.45;;
68475;SDS011;55464;48.266;14.188;2022-08-19T02:58:40;6.10;;;3.22;;
68475;SDS011;55464;48.266;14.188;2022-08-19T03:01:07;5.82;;;3.47;;
68475;SDS011;55464;48.266;14.188;2022-08-19T03:03:35;5.72;;;3.63;;
68475;SDS011;55464;48.266;14.188;2022-08-19T03:06:11;6.75;;;3.35;;
68475;SDS011;55464;48.266;14.188;2022-08-19T03:08:39;7.68;;;3.15;;
68475;SDS011;55464;48.266;14.188;2022-08-19T03:11:06;8.65;;;3.67;;
68475;SDS011;55464;48.266;14.188;2022-08-19T03:13:47;10.10;;;3.70;;
68475;SDS011;55464;48.266;14.188;2022-08-19T03:16:16;9.68;;;3.65;;
68475;SDS011;55464;48.266;14.188;2022-08-19T03:18:43;9.88;;;3.67;;
68475;SDS011;55464;48.266;14.188;2022-08-19T03:21:09;9.40;;;4.22;;
68475;SDS011;55464;48.266;14.188;2022-08-19T03:23:39;8.45;;;4.18;;
68475;SDS011;55464;48.266;14.188;2022-08-19T03:26:05;8.55;;;4.32;;
68475;SDS011;55464;48.266;14.188;2022-08-19T03:28:31;6.50;;;4.10;;
68475;SDS011;55464;48.266;14.188;2022-08-19T03:31:04;10.68;;;4.75;;
68475;SDS011;55464;48.266;14.188;2022-08-19T03:33:32;6.95;;;4.80;;
68475;SDS011;55464;48.266;14.188;2022-08-19T03:36:03;8.43;;;5.18;;
68475;SDS011;55464;48.266;14.188;2022-08-19T03:38:32;5.60;;;4.68;;
68475;SDS011;55464;48.266;14.188;2022-08-19T03:41:01;6.53;;;5.18;;
68475;SDS011;55464;48.266;14.188;2022-08-19T03:43:31;8.13;;;5.88;;
68475;SDS011;55464;48.266;14.188;2022-08-19T03:46:06;8.70;;;6.28;;
68475;SDS011;55464;48.266;14.188;2022-08-19T03:48:34;8.57;;;6.68;;
68475;SDS011;55464;48.266;14.188;2022-08-19T03:51:01;11.60;;;6.80;;
68475;SDS011;55464;48.266;14.188;2022-08-19T03:53:27;10.38;;;7.57;;
68475;SDS011;55464;48.266;14.188;2022-08-19T03:55:54;10.48;;;6.55;;
68475;SDS011;55464;48.266;14.188;2022-08-19T03:58:21;9.55;;;6.93;;
68475;SDS011;55464;48.266;14.188;2022-08-19T04:00:47;8.23;;;6.20;;
68475;SDS011;55464;48.266;14.188;2022-08-19T04:03:13;7.85;;;5.38;;
68475;SDS011;55464;48.266;14.188;2022-08-19T04:05:39;7.20;;;5.80;;
68475;SDS011;55464;48.266;14.188;2022-08-19T04:08:05;9.15;;;5.80;;
68475;SDS011;55464;48.266;14.188;2022-08-19T04:10:34;8.95;;;6.55;;
68475;SDS011;55464;48.266;14.188;2022-08-19T04:13:01;9.13;;;6.07;;
68475;SDS011;55464;48.266;14.188;2022-08-19T04:15:28;7.70;;;6.25;;
68475;SDS011;55464;48.266;14.188;2022-08-19T04:17:58;9.23;;;6.50;;
68475;SDS011;55464;48.266;14.188;2022-08-19T04:20:24;11.27;;;6.60;;
68475;SDS011;55464;48.266;14.188;2022-08-19T04:22:49;8.23;;;6.25;;
68475;SDS011;55464;48.266;14.188;2022-08-19T04:25:15;11.25;;;6.93;;
68475;SDS011;55464;48.266;14.188;2022-08-19T04:27:41;9.25;;;6.10;;
68475;SDS011;55464;48.266;14.188;2022-08-19T04:30:11;9.15;;;6.30;;
68475;SDS011;55464;48.266;14.188;2022-08-19T04:32:38;8.13;;;7.00;;
68475;SDS011;55464;48.266;14.188;2022-08-19T04:35:04;9.40;;;6.43;;
68475;SDS011;55464;48.266;14.188;2022-08-19T04:37:30;6.90;;;5.80;;
68475;SDS011;55464;48.266;14.188;2022-08-19T04:39:58;10.95;;;6.93;;
68475;SDS011;55464;48.266;14.188;2022-08-19T04:42:42;7.95;;;5.88;;
68475;SDS011;55464;48.266;14.188;2022-08-19T04:45:11;10.43;;;6.25;;
68475;SDS011;55464;48.266;14.188;2022-08-19T04:47:39;8.85;;;6.22;;
68475;SDS011;55464;48.266;14.188;2022-08-19T04:50:07;9.07;;;6.00;;
68475;SDS011;55464;48.266;14.188;2022-08-19T04:52:36;11.95;;;6.50;;
68475;SDS011;55464;48.266;14.188;2022-08-19T04:55:07;9.05;;;6.40;;
68475;SDS011;55464;48.266;14.188;2022-08-19T04:57:34;6.85;;;5.68;;
68475;SDS011;55464;48.266;14.188;2022-08-19T05:00:00;10.93;;;5.63;;
68475;SDS011;55464;48.266;14.188;2022-08-19T05:02:26;9.50;;;5.85;;
68475;SDS011;55464;48.266;14.188;2022-08-19T05:04:58;8.90;;;6.60;;
68475;SDS011;55464;48.266;14.188;2022-08-19T05:07:26;7.90;;;6.53;;
68475;SDS011;55464;48.266;14.188;2022-08-19T05:09:52;10.10;;;6.60;;
68475;SDS011;55464;48.266;14.188;2022-08-19T05:12:17;10.45;;;6.80;;
68475;SDS011;55464;48.266;14.188;2022-08-19T05:14:44;8.98;;;6.75;;
68475;SDS011;55464;48.266;14.188;2022-08-19T05:17:11;9.05;;;6.15;;
68475;SDS011;55464;48.266;14.188;2022-08-19T05:19:37;9.35;;;6.50;;
68475;SDS011;55464;48.266;14.188;2022-08-19T05:22:21;9.55;;;6.43;;
68475;SDS011;55464;48.266;14.188;2022-08-19T05:25:06;10.77;;;6.05;;
68475;SDS011;55464;48.266;14.188;2022-08-19T05:27:34;10.23;;;6.63;;
68475;SDS011;55464;48.266;14.188;2022-08-19T05:30:00;11.02;;;7.22;;
68475;SDS011;55464;48.266;14.188;2022-08-19T05:32:26;9.13;;;6.78;;
68475;SDS011;55464;48.266;14.188;2022-08-19T05:34:52;10.38;;;7.25;;
68475;SDS011;55464;48.266;14.188;2022-08-19T05:37:18;10.82;;;7.78;;
68475;SDS011;55464;48.266;14.188;2022-08-19T05:39:44;10.32;;;8.38;;
68475;SDS011;55464;48.266;14.188;2022-08-19T05:42:10;15.20;;;8.68;;
68475;SDS011;55464;48.266;14.188;2022-08-19T05:44:38;10.23;;;8.10;;
68475;SDS011;55464;48.266;14.188;2022-08-19T05:47:08;13.15;;;7.85;;
68475;SDS011;55464;48.266;14.188;2022-08-19T05:49:34;9.73;;;8.38;;
68475;SDS011;55464;48.266;14.188;2022-08-19T05:52:02;11.10;;;8.00;;
68475;SDS011;55464;48.266;14.188;2022-08-19T05:54:29;11.70;;;8.70;;
68475;SDS011;55464;48.266;14.188;2022-08-19T05:56:55;10.30;;;7.90;;
68475;SDS011;55464;48.266;14.188;2022-08-19T05:59:21;11.65;;;8.73;;
68475;SDS011;55464;48.266;14.188;2022-08-19T06:01:48;10.88;;;8.77;;
68475;SDS011;55464;48.266;14.188;2022-08-19T06:04:21;14.35;;;10.60;;
68475;SDS011;55464;48.266;14.188;2022-08-19T06:06:47;13.38;;;10.27;;
68475;SDS011;55464;48.266;14.188;2022-08-19T06:09:15;12.95;;;10.30;;
68475;SDS011;55464;48.266;14.188;2022-08-19T06:12:01;15.20;;;11.07;;
68475;SDS011;55464;48.266;14.188;2022-08-19T06:14:31;16.88;;;11.63;;
68475;SDS011;55464;48.266;14.188;2022-08-19T06:16:59;14.32;;;10.98;;
68475;SDS011;55464;48.266;14.188;2022-08-19T06:19:26;15.27;;;10.85;;
68475;SDS011;55464;48.266;14.188;2022-08-19T06:21:55;17.48;;;11.50;;
68475;SDS011;55464;48.266;14.188;2022-08-19T06:24:23;15.38;;;11.90;;
68475;SDS011;55464;48.266;14.188;2022-08-19T06:26:51;15.45;;;11.88;;
68475;SDS011;55464;48.266;14.188;2022-08-19T06:29:19;17.90;;;12.98;;
68475;SDS011;55464;48.266;14.188;2022-08-19T06:31:47;19.15;;;14.18;;
68475;SDS011;55464;48.266;14.188;2022-08-19T06:34:14;18.45;;;12.98;;
68475;SDS011;55464;48.266;14.188;2022-08-19T06:36:42;18.13;;;13.75;;
68475;SDS011;55464;48.266;14.188;2022-08-19T06:39:14;18.60;;;12.75;;
68475;SDS011;55464;48.266;14.188;2022-08-19T06:41:46;14.90;;;10.23;;
68475;SDS011;55464;48.266;14.188;2022-08-19T06:44:15;15.77;;;11.80;;
68475;SDS011;55464;48.266;14.188;2022-08-19T06:46:42;15.48;;;11.82;;
68475;SDS011;55464;48.266;14.188;2022-08-19T06:49:08;15.35;;;10.77;;
68475;SDS011;55464;48.266;14.188;2022-08-19T06:51:38;17.15;;;12.30;;
68475;SDS011;55464;48.266;14.188;2022-08-19T06:54:04;18.25;;;12.20;;
68475;SDS011;55464;48.266;14.188;2022-08-19T06:56:30;14.98;;;11.10;;
68475;SDS011;55464;48.266;14.188;2022-08-19T06:59:00;14.03;;;11.13;;
68475;SDS011;55464;48.266;14.188;2022-08-19T07:01:27;19.38;;;12.32;;
68475;SDS011;55464;48.266;14.188;2022-08-19T07:03:53;15.80;;;10.63;;
68475;SDS011;55464;48.266;14.188;2022-08-19T07:06:19;15.00;;;10.95;;
68475;SDS011;55464;48.266;14.188;2022-08-19T07:08:45;14.73;;;11.25;;
68475;SDS011;55464;48.266;14.188;2022-08-19T07:11:12;14.18;;;10.32;;
68475;SDS011;55464;48.266;14.188;2022-08-19T07:13:40;14.93;;;10.07;;
68475;SDS011;55464;48.266;14.188;2022-08-19T07:16:09;15.15;;;11.13;;
68475;SDS011;55464;48.266;14.188;2022-08-19T07:18:37;16.50;;;11.18;;
68475;SDS011;55464;48.266;14.188;2022-08-19T07:21:06;14.68;;;10.45;;
68475;SDS011;55464;48.266;14.188;2022-08-19T07:23:33;13.95;;;10.68;;
68475;SDS011;55464;48.266;14.188;2022-08-19T07:26:04;14.77;;;10.25;;
68475;SDS011;55464;48.266;14.188;2022-08-19T07:28:34;17.63;;;12.45;;
68475;SDS011;55464;48.266;14.188;2022-08-19T07:31:03;15.32;;;10.85;;
68475;SDS011;55464;48.266;14.188;2022-08-19T07:33:31;12.48;;;10.07;;
68475;SDS011;55464;48.266;14.188;2022-08-19T07:35:57;19.92;;;14.35;;
68475;SDS011;55464;48.266;14.188;2022-08-19T07:38:23;18.10;;;13.20;;
68475;SDS011;55464;48.266;14.188;2022-08-19T07:40:49;16.10;;;12.30;;
68475;SDS011;55464;48.266;14.188;2022-08-19T07:43:16;20.13;;;13.85;;
68475;SDS011;55464;48.266;14.188;2022-08-19T07:45:47;17.08;;;12.40;;
68475;SDS011;55464;48.266;14.188;2022-08-19T07:48:13;18.08;;;12.00;;
68475;SDS011;55464;48.266;14.188;2022-08-19T07:50:39;17.00;;;12.52;;
68475;SDS011;55464;48.266;14.188;2022-08-19T07:53:05;20.13;;;15.48;;
68475;SDS011;55464;48.266;14.188;2022-08-19T07:55:31;22.20;;;15.32;;
68475;SDS011;55464;48.266;14.188;2022-08-19T07:57:56;16.70;;;11.70;;
68475;SDS011;55464;48.266;14.188;2022-08-19T08:00:22;15.00;;;12.20;;
68475;SDS011;55464;48.266;14.188;2022-08-19T08:02:48;18.00;;;11.48;;
68475;SDS011;55464;48.266;14.188;2022-08-19T08:05:14;18.48;;;12.55;;
68475;SDS011;55464;48.266;14.188;2022-08-19T08:07:58;16.27;;;12.15;;
68475;SDS011;55464;48.266;14.188;2022-08-19T08:10:42;19.40;;;14.10;;
68475;SDS011;55464;48.266;14.188;2022-08-19T08:13:08;13.65;;;10.60;;
68475;SDS011;55464;48.266;14.188;2022-08-19T08:15:34;17.58;;;13.15;;
68475;SDS011;55464;48.266;14.188;2022-08-19T08:18:00;15.68;;;11.20;;
68475;SDS011;55464;48.266;14.188;2022-08-19T08:20:25;19.58;;;15.48;;
68475;SDS011;55464;48.266;14.188;2022-08-19T08:22:51;16.10;;;11.40;;
68475;SDS011;55464;48.266;14.188;2022-08-19T08:25:35;15.85;;;11.63;;
68475;SDS011;55464;48.266;14.188;2022-08-19T08:28:02;16.02;;;10.95;;
68475;SDS011;55464;48.266;14.188;2022-08-19T08:30:29;15.07;;;11.90;;
68475;SDS011;55464;48.266;14.188;2022-08-19T08:32:58;17.38;;;12.20;;
68475;SDS011;55464;48.266;14.188;2022-08-19T08:35:24;17.05;;;12.43;;
68475;SDS011;55464;48.266;14.188;2022-08-19T08:37:51;17.30;;;12.27;;
68475;SDS011;55464;48.266;14.188;2022-08-19T08:43:29;15.43;;;11.82;;
68475;SDS011;55464;48.266;14.188;2022-08-19T08:51:54;17.85;;;12.55;;
68475;SDS011;55464;48.266;14.188;2022-08-19T08:54:42;19.90;;;13.57;;
68475;SDS011;55464;48.266;14.188;2022-08-19T08:57:12;16.63;;;12.55;;
68475;SDS011;55464;48.266;14.188;2022-08-19T08:59:43;15.85;;;12.10;;
68475;SDS011;55464;48.266;14.188;2022-08-19T09:02:16;15.60;;;12.40;;
68475;SDS011;55464;48.266;14.188;2022-08-19T09:04:43;15.80;;;12.15;;
68475;SDS011;55464;48.266;14.188;2022-08-19T09:09:54;14.52;;;11.27;;
68475;SDS011;55464;48.266;14.188;2022-08-19T09:12:38;14.45;;;12.00;;
68475;SDS011;55464;48.266;14.188;2022-08-19T09:15:17;16.25;;;12.23;;
68475;SDS011;55464;48.266;14.188;2022-08-19T09:17:48;15.57;;;10.82;;
68475;SDS011;55464;48.266;14.188;2022-08-19T09:20:21;13.63;;;10.43;;
68475;SDS011;55464;48.266;14.188;2022-08-19T09:22:48;13.48;;;10.82;;
68475;SDS011;55464;48.266;14.188;2022-08-19T09:25:16;12.40;;;11.10;;
68475;SDS011;55464;48.266;14.188;2022-08-19T09:27:46;19.42;;;13.00;;
68475;SDS011;55464;48.266;14.188;2022-08-19T09:30:15;15.15;;;11.90;;
68475;SDS011;55464;48.266;14.188;2022-08-19T09:32:47;18.00;;;12.73;;
68475;SDS011;55464;48.266;14.188;2022-08-19T09:35:13;15.18;;;11.63;;
68475;SDS011;55464;48.266;14.188;2022-08-19T09:37:40;13.95;;;11.30;;
68475;SDS011;55464;48.266;14.188;2022-08-19T09:40:08;15.77;;;12.63;;
68475;SDS011;55464;48.266;14.188;2022-08-19T09:42:36;17.38;;;12.68;;
68475;SDS011;55464;48.266;14.188;2022-08-19T09:45:02;18.42;;;13.15;;
68475;SDS011;55464;48.266;14.188;2022-08-19T09:47:29;18.85;;;13.75;;
68475;SDS011;55464;48.266;14.188;2022-08-19T09:49:55;13.85;;;10.90;;
68475;SDS011;55464;48.266;14.188;2022-08-19T09:52:20;21.13;;;14.02;;
68475;SDS011;55464;48.266;14.188;2022-08-19T09:54:46;13.25;;;10.90;;
68475;SDS011;55464;48.266;14.188;2022-08-19T09:57:12;15.02;;;12.05;;
68475;SDS011;55464;48.266;14.188;2022-08-19T09:59:38;15.60;;;12.00;;
68475;SDS011;55464;48.266;14.188;2022-08-19T10:02:04;15.90;;;11.68;;
68475;SDS011;55464;48.266;14.188;2022-08-19T10:04:29;13.00;;;11.60;;
68475;SDS011;55464;48.266;14.188;2022-08-19T10:07:14;19.17;;;14.40;;
68475;SDS011;55464;48.266;14.188;2022-08-19T10:09:40;12.45;;;10.25;;
68475;SDS011;55464;48.266;14.188;2022-08-19T10:12:06;12.32;;;9.77;;
68475;SDS011;55464;48.266;14.188;2022-08-19T10:14:33;12.50;;;10.00;;
68475;SDS011;55464;48.266;14.188;2022-08-19T10:16:59;11.05;;;9.57;;
68475;SDS011;55464;48.266;14.188;2022-08-19T10:19:27;13.68;;;9.50;;
68475;SDS011;55464;48.266;14.188;2022-08-19T10:21:57;14.23;;;9.93;;
68475;SDS011;55464;48.266;14.188;2022-08-19T10:24:22;11.68;;;9.57;;
68475;SDS011;55464;48.266;14.188;2022-08-19T10:26:50;11.57;;;9.85;;
68475;SDS011;55464;48.266;14.188;2022-08-19T10:29:16;12.52;;;9.80;;
68475;SDS011;55464;48.266;14.188;2022-08-19T10:31:42;10.27;;;9.18;;
68475;SDS011;55464;48.266;14.188;2022-08-19T10:34:08;12.65;;;10.13;;
68475;SDS011;55464;48.266;14.188;2022-08-19T10:36:35;11.60;;;9.45;;
68475;SDS011;55464;48.266;14.188;2022-08-19T10:39:04;10.57;;;9.30;;
68475;SDS011;55464;48.266;14.188;2022-08-19T10:44:01;10.93;;;8.73;;
68475;SDS011;55464;48.266;14.188;2022-08-19T10:46:30;11.25;;;9.27;;
68475;SDS011;55464;48.266;14.188;2022-08-19T10:48:57;8.93;;;8.00;;
68475;SDS011;55464;48.266;14.188;2022-08-19T10:51:26;10.57;;;8.15;;
68475;SDS011;55464;48.266;14.188;2022-08-19T10:54:11;9.38;;;7.43;;
68475;SDS011;55464;48.266;14.188;2022-08-19T10:56:36;10.15;;;7.90;;
68475;SDS011;55464;48.266;14.188;2022-08-19T10:59:24;11.77;;;8.38;;
68475;SDS011;55464;48.266;14.188;2022-08-19T11:01:52;10.93;;;7.60;;
68475;SDS011;55464;48.266;14.188;2022-08-19T11:04:19;8.38;;;7.28;;
68475;SDS011;55464;48.266;14.188;2022-08-19T11:06:46;8.20;;;7.35;;
68475;SDS011;55464;48.266;14.188;2022-08-19T11:09:17;9.40;;;7.10;;
68475;SDS011;55464;48.266;14.188;2022-08-19T11:11:46;7.78;;;6.15;;
68475;SDS011;55464;48.266;14.188;2022-08-19T11:14:13;7.50;;;6.45;;
68475;SDS011;55464;48.266;14.188;2022-08-19T11:16:41;7.75;;;6.38;;
68475;SDS011;55464;48.266;14.188;2022-08-19T11:19:08;7.78;;;6.60;;
68475;SDS011;55464;48.266;14.188;2022-08-19T11:21:39;8.55;;;7.03;;
68475;SDS011;55464;48.266;14.188;2022-08-19T11:24:07;8.40;;;6.90;;
68475;SDS011;55464;48.266;14.188;2022-08-19T11:26:35;6.97;;;6.28;;
68475;SDS011;55464;48.266;14.188;2022-08-19T11:29:02;8.45;;;6.70;;
68475;SDS011;55464;48.266;14.188;2022-08-19T11:31:31;8.38;;;6.35;;
68475;SDS011;55464;48.266;14.188;2022-08-19T11:33:58;10.30;;;7.40;;
68475;SDS011;55464;48.266;14.188;2022-08-19T11:36:26;10.55;;;7.45;;
68475;SDS011;55464;48.266;14.188;2022-08-19T11:38:53;11.77;;;7.00;;
68475;SDS011;55464;48.266;14.188;2022-08-19T11:41:19;9.70;;;7.20;;
68475;SDS011;55464;48.266;14.188;2022-08-19T11:43:47;8.48;;;7.05;;
68475;SDS011;55464;48.266;14.188;2022-08-19T11:46:14;8.80;;;5.82;;
68475;SDS011;55464;48.266;14.188;2022-08-19T11:48:41;7.32;;;6.18;;
68475;SDS011;55464;48.266;14.188;2022-08-19T11:51:08;9.25;;;6.47;;
68475;SDS011;55464;48.266;14.188;2022-08-19T11:53:37;7.88;;;6.45;;
68475;SDS011;55464;48.266;14.188;2022-08-19T11:56:04;11.55;;;6.57;;
68475;SDS011;55464;48.266;14.188;2022-08-19T11:58:31;10.60;;;6.50;;
68475;SDS011;55464;48.266;14.188;2022-08-19T12:00:57;7.82;;;6.43;;
68475;SDS011;55464;48.266;14.188;2022-08-19T12:03:23;11.63;;;6.38;;
68475;SDS011;55464;48.266;14.188;2022-08-19T12:05:48;8.00;;;6.25;;
68475;SDS011;55464;48.266;14.188;2022-08-19T12:08:15;6.70;;;6.10;;
68475;SDS011;55464;48.266;14.188;2022-08-19T12:10:42;6.88;;;5.57;;
68475;SDS011;55464;48.266;14.188;2022-08-19T12:13:09;5.78;;;5.07;;
68475;SDS011;55464;48.266;14.188;2022-08-19T12:15:36;7.88;;;6.55;;
68475;SDS011;55464;48.266;14.188;2022-08-19T12:18:03;6.85;;;6.00;;
68475;SDS011;55464;48.266;14.188;2022-08-19T12:20:29;7.65;;;6.55;;
68475;SDS011;55464;48.266;14.188;2022-08-19T12:22:55;8.35;;;6.18;;
68475;SDS011;55464;48.266;14.188;2022-08-19T12:25:21;7.28;;;5.50;;
68475;SDS011;55464;48.266;14.188;2022-08-19T12:27:47;6.50;;;5.43;;
68475;SDS011;55464;48.266;14.188;2022-08-19T12:30:14;9.23;;;6.38;;
68475;SDS011;55464;48.266;14.188;2022-08-19T12:32:40;7.95;;;6.53;;
68475;SDS011;55464;48.266;14.188;2022-08-19T12:35:06;7.57;;;5.95;;
68475;SDS011;55464;48.266;14.188;2022-08-19T12:37:34;7.78;;;6.85;;
68475;SDS011;55464;48.266;14.188;2022-08-19T12:39:59;7.10;;;6.22;;
68475;SDS011;55464;48.266;14.188;2022-08-19T12:42:25;8.48;;;6.43;;
68475;SDS011;55464;48.266;14.188;2022-08-19T12:44:51;7.53;;;6.07;;
68475;SDS011;55464;48.266;14.188;2022-08-19T12:47:17;6.43;;;5.80;;
68475;SDS011;55464;48.266;14.188;2022-08-19T12:49:43;10.23;;;5.72;;
68475;SDS011;55464;48.266;14.188;2022-08-19T12:52:10;9.15;;;6.53;;
68475;SDS011;55464;48.266;14.188;2022-08-19T12:54:36;6.35;;;5.63;;
68475;SDS011;55464;48.266;14.188;2022-08-19T12:57:05;7.20;;;5.88;;
68475;SDS011;55464;48.266;14.188;2022-08-19T12:59:33;7.97;;;6.18;;
68475;SDS011;55464;48.266;14.188;2022-08-19T13:01:59;6.50;;;5.55;;
68475;SDS011;55464;48.266;14.188;2022-08-19T13:04:25;5.97;;;5.38;;
68475;SDS011;55464;48.266;14.188;2022-08-19T13:06:51;6.35;;;5.68;;
68475;SDS011;55464;48.266;14.188;2022-08-19T13:09:16;7.45;;;5.63;;
68475;SDS011;55464;48.266;14.188;2022-08-19T13:11:42;6.85;;;5.15;;
68475;SDS011;55464;48.266;14.188;2022-08-19T13:14:08;6.20;;;5.32;;
68475;SDS011;55464;48.266;14.188;2022-08-19T13:16:36;8.35;;;5.47;;
68475;SDS011;55464;48.266;14.188;2022-08-19T13:19:03;7.22;;;6.53;;
68475;SDS011;55464;48.266;14.188;2022-08-19T13:21:30;7.30;;;6.22;;
68475;SDS011;55464;48.266;14.188;2022-08-19T13:23:56;7.28;;;6.10;;
68475;SDS011;55464;48.266;14.188;2022-08-19T13:26:21;8.38;;;5.97;;
68475;SDS011;55464;48.266;14.188;2022-08-19T13:28:47;7.90;;;5.53;;
68475;SDS011;55464;48.266;14.188;2022-08-19T13:31:33;6.95;;;5.35;;
68475;SDS011;55464;48.266;14.188;2022-08-19T13:34:33;5.35;;;4.85;;
68475;SDS011;55464;48.266;14.188;2022-08-19T13:37:01;6.95;;;6.18;;
68475;SDS011;55464;48.266;14.188;2022-08-19T13:39:29;6.15;;;5.55;;
68475;SDS011;55464;48.266;14.188;2022-08-19T13:41:55;7.60;;;5.25;;
68475;SDS011;55464;48.266;14.188;2022-08-19T13:44:21;7.40;;;5.40;;
68475;SDS011;55464;48.266;14.188;2022-08-19T13:46:47;6.13;;;5.22;;
68475;SDS011;55464;48.266;14.188;2022-08-19T13:49:14;7.57;;;5.15;;
68475;SDS011;55464;48.266;14.188;2022-08-19T13:51:41;5.53;;;5.03;;
68475;SDS011;55464;48.266;14.188;2022-08-19T13:54:08;6.47;;;5.10;;
68475;SDS011;55464;48.266;14.188;2022-08-19T13:56:35;8.38;;;5.57;;
68475;SDS011;55464;48.266;14.188;2022-08-19T14:01:30;6.80;;;5.15;;
68475;SDS011;55464;48.266;14.188;2022-08-19T14:03:56;7.07;;;4.63;;
68475;SDS011;55464;48.266;14.188;2022-08-19T14:06:21;6.55;;;4.90;;
68475;SDS011;55464;48.266;14.188;2022-08-19T14:08:47;9.18;;;5.90;;
68475;SDS011;55464;48.266;14.188;2022-08-19T14:11:13;5.55;;;4.97;;
68475;SDS011;55464;48.266;14.188;2022-08-19T14:13:39;5.57;;;4.95;;
68475;SDS011;55464;48.266;14.188;2022-08-19T14:16:09;6.38;;;5.13;;
68475;SDS011;55464;48.266;14.188;2022-08-19T14:18:36;5.25;;;4.75;;
68475;SDS011;55464;48.266;14.188;2022-08-19T14:21:04;5.68;;;4.72;;
68475;SDS011;55464;48.266;14.188;2022-08-19T14:23:30;4.75;;;4.25;;
68475;SDS011;55464;48.266;14.188;2022-08-19T14:26:30;6.18;;;4.38;;
68475;SDS011;55464;48.266;14.188;2022-08-19T14:28:48;6.68;;;4.63;;
68475;SDS011;55464;48.266;14.188;2022-08-19T14:31:15;6.72;;;5.20;;
68475;SDS011;55464;48.266;14.188;2022-08-19T14:33:44;6.30;;;4.47;;
68475;SDS011;55464;48.266;14.188;2022-08-19T14:36:13;7.32;;;4.45;;
68475;SDS011;55464;48.266;14.188;2022-08-19T14:38:39;7.30;;;4.22;;
68475;SDS011;55464;48.266;14.188;2022-08-19T14:41:09;4.75;;;4.35;;
68475;SDS011;55464;48.266;14.188;2022-08-19T14:43:35;5.43;;;4.68;;
68475;SDS011;55464;48.266;14.188;2022-08-19T14:46:01;5.70;;;4.25;;
68475;SDS011;55464;48.266;14.188;2022-08-19T14:48:27;5.78;;;4.10;;
68475;SDS011;55464;48.266;14.188;2022-08-19T14:50:52;8.73;;;4.40;;